sensor_id;sensor_type;location;lat;lon;timestamp;pressure;altitude;pressure_sealevel;temperature;humidity
9335;BME280;4706;41.844;26.082;2023-07-20T00:00:02;100160.47;;;29.38;48.71
9335;BME280;4706;41.844;26.082;2023-07-20T00:02:30;100163.56;;;29.44;48.37
9335;BME280;4706;41.844;26.082;2023-07-20T00:04:55;100165.59;;;29.43;48.63
9335;BME280;4706;41.844;26.082;2023-07-20T00:07:21;100167.44;;;29.34;48.86
9335;BME280;4706;41.844;26.082;2023-07-20T00:09:47;100152.63;;;29.26;49.00
9335;BME280;4706;41.844;26.082;2023-07-20T00:12:13;100158.03;;;29.20;49.10
9335;BME280;4706;41.844;26.082;2023-07-20T00:14:39;100153.06;;;29.08;49.43
9335;BME280;4706;41.844;26.082;2023-07-20T00:17:04;100169.41;;;29.00;50.05
9335;BME280;4706;41.844;26.082;2023-07-20T00:19:30;100170.63;;;28.99;50.04
9335;BME280;4706;41.844;26.082;2023-07-20T00:21:57;100166.75;;;28.90;50.12
9335;BME280;4706;41.844;26.082;2023-07-20T00:24:23;100164.59;;;28.77;50.25
9335;BME280;4706;41.844;26.082;2023-07-20T00:26:48;100169.22;;;28.68;50.87
9335;BME280;4706;41.844;26.082;2023-07-20T00:29:14;100161.88;;;28.50;51.08
9335;BME280;4706;41.844;26.082;2023-07-20T00:31:39;100172.47;;;28.46;51.33
9335;BME280;4706;41.844;26.082;2023-07-20T00:34:05;100161.38;;;28.32;51.54
9335;BME280;4706;41.844;26.082;2023-07-20T00:36:31;100170.88;;;28.45;51.39
9335;BME280;4706;41.844;26.082;2023-07-20T00:38:57;100178.66;;;28.41;51.82
9335;BME280;4706;41.844;26.082;2023-07-20T00:41:23;100173.09;;;28.34;52.18
9335;BME280;4706;41.844;26.082;2023-07-20T00:43:50;100174.44;;;28.49;51.41
9335;BME280;4706;41.844;26.082;2023-07-20T00:46:16;100164.22;;;28.32;51.82
9335;BME280;4706;41.844;26.082;2023-07-20T00:48:42;100165.34;;;28.38;51.67
9335;BME280;4706;41.844;26.082;2023-07-20T00:51:08;100161.31;;;28.36;51.43
9335;BME280;4706;41.844;26.082;2023-07-20T00:53:33;100159.44;;;28.29;52.21
9335;BME280;4706;41.844;26.082;2023-07-20T00:55:59;100153.66;;;28.13;52.28
9335;BME280;4706;41.844;26.082;2023-07-20T00:58:25;100152.19;;;28.04;52.50
9335;BME280;4706;41.844;26.082;2023-07-20T01:00:51;100154.34;;;27.97;52.87
9335;BME280;4706;41.844;26.082;2023-07-20T01:03:16;100123.50;;;27.82;53.41
9335;BME280;4706;41.844;26.082;2023-07-20T01:05:54;100119.41;;;27.60;53.99
9335;BME280;4706;41.844;26.082;2023-07-20T01:08:44;100137.91;;;27.38;54.88
9335;BME280;4706;41.844;26.082;2023-07-20T01:11:24;100158.06;;;27.09;55.61
9335;BME280;4706;41.844;26.082;2023-07-20T01:13:53;100170.06;;;27.20;55.50
9335;BME280;4706;41.844;26.082;2023-07-20T01:16:20;100186.25;;;27.43;55.30
9335;BME280;4706;41.844;26.082;2023-07-20T01:18:45;100206.31;;;27.52;54.46
9335;BME280;4706;41.844;26.082;2023-07-20T01:21:20;100206.88;;;27.67;54.25
9335;BME280;4706;41.844;26.082;2023-07-20T01:32:19;100260.19;;;28.46;53.66
9335;BME280;4706;41.844;26.082;2023-07-20T01:34:48;100278.38;;;28.45;53.43
9335;BME280;4706;41.844;26.082;2023-07-20T01:37:15;100271.00;;;28.51;53.01
9335;BME280;4706;41.844;26.082;2023-07-20T01:39:42;100263.25;;;28.55;52.54
9335;BME280;4706;41.844;26.082;2023-07-20T01:42:08;100263.31;;;28.52;52.39
9335;BME280;4706;41.844;26.082;2023-07-20T01:44:34;100235.31;;;28.58;51.98
9335;BME280;4706;41.844;26.082;2023-07-20T01:46:59;100213.00;;;28.40;52.15
9335;BME280;4706;41.844;26.082;2023-07-20T01:49:25;100223.63;;;28.32;52.17
9335;BME280;4706;41.844;26.082;2023-07-20T01:51:50;100214.72;;;28.33;52.29
9335;BME280;4706;41.844;26.082;2023-07-20T01:54:16;100213.50;;;28.11;52.72
9335;BME280;4706;41.844;26.082;2023-07-20T01:56:41;100187.47;;;28.20;52.61
9335;BME280;4706;41.844;26.082;2023-07-20T01:59:07;100164.53;;;27.91;53.44
9335;BME280;4706;41.844;26.082;2023-07-20T02:01:33;100171.28;;;27.46;54.52
9335;BME280;4706;41.844;26.082;2023-07-20T02:03:59;100200.38;;;27.43;55.03
9335;BME280;4706;41.844;26.082;2023-07-20T02:06:24;100194.44;;;27.34;55.58
9335;BME280;4706;41.844;26.082;2023-07-20T02:08:50;100208.44;;;27.45;55.71
9335;BME280;4706;41.844;26.082;2023-07-20T02:11:15;100215.75;;;27.42;55.68
9335;BME280;4706;41.844;26.082;2023-07-20T02:13:41;100204.69;;;27.24;56.11
9335;BME280;4706;41.844;26.082;2023-07-20T02:16:06;100194.28;;;27.18;56.36
9335;BME280;4706;41.844;26.082;2023-07-20T02:18:31;100191.28;;;27.32;55.88
9335;BME280;4706;41.844;26.082;2023-07-20T02:20:58;100189.09;;;27.43;55.50
9335;BME280;4706;41.844;26.082;2023-07-20T02:23:24;100190.72;;;27.41;55.37
9335;BME280;4706;41.844;26.082;2023-07-20T02:25:49;100189.94;;;27.40;55.60
9335;BME280;4706;41.844;26.082;2023-07-20T02:28:15;100187.00;;;27.47;55.14
9335;BME280;4706;41.844;26.082;2023-07-20T02:30:40;100175.63;;;27.54;54.67
9335;BME280;4706;41.844;26.082;2023-07-20T02:33:07;100170.75;;;27.55;54.16
9335;BME280;4706;41.844;26.082;2023-07-20T02:35:32;100173.03;;;27.64;54.04
9335;BME280;4706;41.844;26.082;2023-07-20T02:37:58;100176.19;;;27.69;53.62
9335;BME280;4706;41.844;26.082;2023-07-20T02:40:23;100166.56;;;27.40;54.84
9335;BME280;4706;41.844;26.082;2023-07-20T02:42:49;100167.34;;;27.40;54.96
9335;BME280;4706;41.844;26.082;2023-07-20T02:45:14;100154.22;;;27.26;55.38
9335;BME280;4706;41.844;26.082;2023-07-20T02:47:40;100160.75;;;27.50;54.86
9335;BME280;4706;41.844;26.082;2023-07-20T02:50:07;100152.63;;;27.52;54.84
9335;BME280;4706;41.844;26.082;2023-07-20T02:52:33;100152.91;;;27.62;55.12
9335;BME280;4706;41.844;26.082;2023-07-20T02:54:59;100147.78;;;27.26;56.22
9335;BME280;4706;41.844;26.082;2023-07-20T02:57:24;100148.38;;;27.41;55.61
9335;BME280;4706;41.844;26.082;2023-07-20T02:59:50;100137.06;;;27.41;55.42
9335;BME280;4706;41.844;26.082;2023-07-20T03:02:16;100124.34;;;27.29;55.81
9335;BME280;4706;41.844;26.082;2023-07-20T03:04:41;100125.28;;;27.19;55.86
9335;BME280;4706;41.844;26.082;2023-07-20T03:07:07;100113.31;;;27.07;56.72
9335;BME280;4706;41.844;26.082;2023-07-20T03:09:33;100123.03;;;27.06;56.99
9335;BME280;4706;41.844;26.082;2023-07-20T03:11:58;100129.56;;;27.00;57.08
9335;BME280;4706;41.844;26.082;2023-07-20T03:14:24;100128.34;;;27.01;56.76
9335;BME280;4706;41.844;26.082;2023-07-20T03:16:49;100137.22;;;26.99;57.21
9335;BME280;4706;41.844;26.082;2023-07-20T03:19:15;100140.28;;;27.16;56.69
9335;BME280;4706;41.844;26.082;2023-07-20T03:21:40;100136.53;;;27.22;56.28
9335;BME280;4706;41.844;26.082;2023-07-20T03:24:08;100134.75;;;27.05;56.75
9335;BME280;4706;41.844;26.082;2023-07-20T03:26:34;100133.28;;;26.93;58.23
9335;BME280;4706;41.844;26.082;2023-07-20T03:29:00;100145.81;;;26.58;60.43
9335;BME280;4706;41.844;26.082;2023-07-20T03:31:25;100141.19;;;26.37;61.20
9335;BME280;4706;41.844;26.082;2023-07-20T03:33:51;100147.28;;;26.32;61.46
9335;BME280;4706;41.844;26.082;2023-07-20T03:36:17;100137.91;;;26.46;60.62
9335;BME280;4706;41.844;26.082;2023-07-20T03:38:42;100130.63;;;26.48;60.36
9335;BME280;4706;41.844;26.082;2023-07-20T03:41:08;100129.16;;;26.33;61.09
9335;BME280;4706;41.844;26.082;2023-07-20T03:43:34;100132.63;;;26.06;61.99
9335;BME280;4706;41.844;26.082;2023-07-20T03:46:00;100132.75;;;25.96;61.96
9335;BME280;4706;41.844;26.082;2023-07-20T03:48:25;100133.69;;;25.75;63.12
9335;BME280;4706;41.844;26.082;2023-07-20T03:50:52;100143.28;;;25.88;62.90
9335;BME280;4706;41.844;26.082;2023-07-20T03:53:18;100162.81;;;26.06;61.92
9335;BME280;4706;41.844;26.082;2023-07-20T03:55:47;100164.44;;;26.07;61.35
9335;BME280;4706;41.844;26.082;2023-07-20T03:58:14;100167.13;;;26.17;60.64
9335;BME280;4706;41.844;26.082;2023-07-20T04:00:39;100169.47;;;26.30;60.69
9335;BME280;4706;41.844;26.082;2023-07-20T04:03:06;100171.03;;;26.34;60.48
9335;BME280;4706;41.844;26.082;2023-07-20T04:05:31;100172.56;;;26.39;60.14
9335;BME280;4706;41.844;26.082;2023-07-20T04:07:57;100162.28;;;26.63;59.18
9335;BME280;4706;41.844;26.082;2023-07-20T04:10:22;100147.09;;;26.84;58.57
9335;BME280;4706;41.844;26.082;2023-07-20T04:12:48;100152.59;;;26.64;59.44
9335;BME280;4706;41.844;26.082;2023-07-20T04:15:14;100154.16;;;26.69;59.34
9335;BME280;4706;41.844;26.082;2023-07-20T04:17:40;100152.22;;;26.93;57.99
9335;BME280;4706;41.844;26.082;2023-07-20T04:20:07;100140.97;;;26.89;58.57
9335;BME280;4706;41.844;26.082;2023-07-20T04:22:32;100148.44;;;27.06;57.71
9335;BME280;4706;41.844;26.082;2023-07-20T04:24:58;100155.41;;;27.29;56.98
9335;BME280;4706;41.844;26.082;2023-07-20T04:27:23;100162.16;;;27.62;56.35
9335;BME280;4706;41.844;26.082;2023-07-20T04:29:49;100165.97;;;27.79;55.55
9335;BME280;4706;41.844;26.082;2023-07-20T04:32:14;100160.81;;;27.97;55.19
9335;BME280;4706;41.844;26.082;2023-07-20T04:34:40;100161.06;;;28.06;54.70
9335;BME280;4706;41.844;26.082;2023-07-20T04:37:05;100169.09;;;28.31;54.06
9335;BME280;4706;41.844;26.082;2023-07-20T04:39:31;100166.53;;;28.61;52.76
9335;BME280;4706;41.844;26.082;2023-07-20T04:41:57;100168.72;;;28.73;52.72
9335;BME280;4706;41.844;26.082;2023-07-20T04:44:23;100167.13;;;28.72;51.96
9335;BME280;4706;41.844;26.082;2023-07-20T04:46:48;100162.41;;;28.85;51.89
9335;BME280;4706;41.844;26.082;2023-07-20T04:49:14;100167.72;;;29.03;51.16
9335;BME280;4706;41.844;26.082;2023-07-20T04:51:40;100162.06;;;29.03;51.41
9335;BME280;4706;41.844;26.082;2023-07-20T04:54:05;100166.25;;;29.15;51.21
9335;BME280;4706;41.844;26.082;2023-07-20T04:56:31;100170.84;;;29.09;51.43
9335;BME280;4706;41.844;26.082;2023-07-20T04:58:56;100178.09;;;29.10;51.69
9335;BME280;4706;41.844;26.082;2023-07-20T05:01:23;100175.50;;;28.99;52.68
9335;BME280;4706;41.844;26.082;2023-07-20T05:03:48;100177.22;;;28.73;52.66
9335;BME280;4706;41.844;26.082;2023-07-20T05:06:14;100178.97;;;28.87;52.66
9335;BME280;4706;41.844;26.082;2023-07-20T05:08:40;100171.03;;;29.18;51.73
9335;BME280;4706;41.844;26.082;2023-07-20T05:11:05;100166.00;;;29.25;51.53
9335;BME280;4706;41.844;26.082;2023-07-20T05:13:32;100164.59;;;29.34;51.27
9335;BME280;4706;41.844;26.082;2023-07-20T05:15:58;100164.97;;;29.36;51.83
9335;BME280;4706;41.844;26.082;2023-07-20T05:18:23;100170.38;;;29.30;52.59
9335;BME280;4706;41.844;26.082;2023-07-20T05:20:49;100176.59;;;29.41;51.13
9335;BME280;4706;41.844;26.082;2023-07-20T05:23:18;100177.78;;;29.24;51.15
9335;BME280;4706;41.844;26.082;2023-07-20T05:25:45;100169.28;;;29.24;50.90
9335;BME280;4706;41.844;26.082;2023-07-20T05:28:10;100162.69;;;29.47;49.55
9335;BME280;4706;41.844;26.082;2023-07-20T05:30:36;100180.81;;;29.69;48.83
9335;BME280;4706;41.844;26.082;2023-07-20T05:33:01;100176.94;;;29.80;48.51
9335;BME280;4706;41.844;26.082;2023-07-20T05:35:27;100167.34;;;29.90;47.48
9335;BME280;4706;41.844;26.082;2023-07-20T05:37:52;100160.78;;;29.93;47.94
9335;BME280;4706;41.844;26.082;2023-07-20T05:40:18;100159.78;;;30.16;47.80
9335;BME280;4706;41.844;26.082;2023-07-20T05:42:47;100158.84;;;30.52;45.43
9335;BME280;4706;41.844;26.082;2023-07-20T05:45:14;100157.63;;;30.65;45.01
9335;BME280;4706;41.844;26.082;2023-07-20T05:47:41;100146.91;;;30.73;45.13
9335;BME280;4706;41.844;26.082;2023-07-20T05:50:07;100148.75;;;30.80;44.21
9335;BME280;4706;41.844;26.082;2023-07-20T05:52:33;100136.28;;;30.61;45.00
9335;BME280;4706;41.844;26.082;2023-07-20T05:54:58;100137.19;;;30.58;44.92
9335;BME280;4706;41.844;26.082;2023-07-20T05:57:24;100149.09;;;30.82;44.84
9335;BME280;4706;41.844;26.082;2023-07-20T05:59:50;100146.53;;;31.00;43.68
9335;BME280;4706;41.844;26.082;2023-07-20T06:02:16;100139.72;;;31.10;43.61
9335;BME280;4706;41.844;26.082;2023-07-20T06:04:41;100144.84;;;31.15;43.79
9335;BME280;4706;41.844;26.082;2023-07-20T06:07:07;100144.34;;;31.33;43.91
9335;BME280;4706;41.844;26.082;2023-07-20T06:09:35;100141.13;;;31.44;43.29
9335;BME280;4706;41.844;26.082;2023-07-20T06:12:01;100146.69;;;31.48;42.76
9335;BME280;4706;41.844;26.082;2023-07-20T06:14:27;100136.91;;;31.36;43.26
9335;BME280;4706;41.844;26.082;2023-07-20T06:16:52;100134.31;;;31.54;43.34
9335;BME280;4706;41.844;26.082;2023-07-20T06:19:18;100139.41;;;31.72;42.87
9335;BME280;4706;41.844;26.082;2023-07-20T06:21:43;100142.47;;;31.90;42.46
9335;BME280;4706;41.844;26.082;2023-07-20T06:24:08;100135.22;;;31.64;42.82
9335;BME280;4706;41.844;26.082;2023-07-20T06:26:34;100136.78;;;31.78;42.39
9335;BME280;4706;41.844;26.082;2023-07-20T06:29:07;100145.22;;;31.94;42.23
9335;BME280;4706;41.844;26.082;2023-07-20T06:31:34;100136.50;;;32.10;41.99
9335;BME280;4706;41.844;26.082;2023-07-20T06:34:01;100139.13;;;32.39;41.37
9335;BME280;4706;41.844;26.082;2023-07-20T06:36:27;100134.38;;;32.36;41.31
9335;BME280;4706;41.844;26.082;2023-07-20T06:38:52;100131.03;;;32.73;40.30
9335;BME280;4706;41.844;26.082;2023-07-20T06:41:18;100119.03;;;33.00;40.00
9335;BME280;4706;41.844;26.082;2023-07-20T06:43:44;100112.31;;;33.25;39.26
9335;BME280;4706;41.844;26.082;2023-07-20T06:46:10;100115.56;;;33.05;39.55
9335;BME280;4706;41.844;26.082;2023-07-20T06:48:35;100098.25;;;33.21;39.62
9335;BME280;4706;41.844;26.082;2023-07-20T06:51:01;100092.13;;;33.41;39.26
9335;BME280;4706;41.844;26.082;2023-07-20T06:53:26;100089.81;;;33.49;39.18
9335;BME280;4706;41.844;26.082;2023-07-20T06:55:52;100091.34;;;33.41;39.80
9335;BME280;4706;41.844;26.082;2023-07-20T06:58:17;100081.81;;;33.34;39.71
9335;BME280;4706;41.844;26.082;2023-07-20T07:00:44;100083.09;;;33.43;39.57
9335;BME280;4706;41.844;26.082;2023-07-20T07:03:10;100078.09;;;33.56;38.78
9335;BME280;4706;41.844;26.082;2023-07-20T07:05:38;100083.84;;;33.83;39.11
9335;BME280;4706;41.844;26.082;2023-07-20T07:08:05;100088.28;;;33.84;39.06
9335;BME280;4706;41.844;26.082;2023-07-20T07:10:31;100088.28;;;33.84;39.17
9335;BME280;4706;41.844;26.082;2023-07-20T07:12:56;100103.53;;;34.00;38.79
9335;BME280;4706;41.844;26.082;2023-07-20T07:15:22;100087.56;;;34.12;38.09
9335;BME280;4706;41.844;26.082;2023-07-20T07:17:48;100086.41;;;34.00;38.42
9335;BME280;4706;41.844;26.082;2023-07-20T07:20:13;100082.97;;;34.23;38.46
9335;BME280;4706;41.844;26.082;2023-07-20T07:22:39;100085.94;;;34.29;38.09
9335;BME280;4706;41.844;26.082;2023-07-20T07:25:05;100082.75;;;34.45;37.56
9335;BME280;4706;41.844;26.082;2023-07-20T07:27:30;100082.16;;;34.50;38.22
9335;BME280;4706;41.844;26.082;2023-07-20T07:29:56;100088.47;;;34.73;37.06
9335;BME280;4706;41.844;26.082;2023-07-20T07:32:21;100082.38;;;34.89;37.26
9335;BME280;4706;41.844;26.082;2023-07-20T07:34:47;100065.34;;;35.13;35.66
9335;BME280;4706;41.844;26.082;2023-07-20T07:37:13;100056.22;;;35.24;35.51
9335;BME280;4706;41.844;26.082;2023-07-20T07:39:39;100062.63;;;35.52;35.71
9335;BME280;4706;41.844;26.082;2023-07-20T07:42:05;100068.31;;;35.76;34.82
9335;BME280;4706;41.844;26.082;2023-07-20T07:44:31;100064.22;;;35.92;34.56
9335;BME280;4706;41.844;26.082;2023-07-20T07:46:56;100057.03;;;36.20;35.23
9335;BME280;4706;41.844;26.082;2023-07-20T07:49:22;100061.72;;;36.62;34.38
9335;BME280;4706;41.844;26.082;2023-07-20T07:51:47;100063.81;;;36.77;33.24
9335;BME280;4706;41.844;26.082;2023-07-20T07:54:13;100053.63;;;36.90;33.17
9335;BME280;4706;41.844;26.082;2023-07-20T07:56:39;100065.94;;;37.11;32.71
9335;BME280;4706;41.844;26.082;2023-07-20T07:59:06;100062.22;;;36.90;32.82
9335;BME280;4706;41.844;26.082;2023-07-20T08:01:32;100066.56;;;36.86;32.85
9335;BME280;4706;41.844;26.082;2023-07-20T08:03:58;100059.75;;;36.68;33.02
9335;BME280;4706;41.844;26.082;2023-07-20T08:06:23;100051.53;;;36.91;32.93
9335;BME280;4706;41.844;26.082;2023-07-20T08:08:50;100054.59;;;36.87;32.44
9335;BME280;4706;41.844;26.082;2023-07-20T08:11:15;100053.72;;;36.81;32.86
9335;BME280;4706;41.844;26.082;2023-07-20T08:13:43;100057.34;;;37.11;32.08
9335;BME280;4706;41.844;26.082;2023-07-20T08:16:09;100059.56;;;37.37;32.17
9335;BME280;4706;41.844;26.082;2023-07-20T08:18:34;100062.19;;;37.55;31.36
9335;BME280;4706;41.844;26.082;2023-07-20T08:21:00;100060.22;;;37.61;31.80
9335;BME280;4706;41.844;26.082;2023-07-20T08:23:26;100054.69;;;37.99;31.28
9335;BME280;4706;41.844;26.082;2023-07-20T08:25:53;100059.59;;;38.39;30.87
9335;BME280;4706;41.844;26.082;2023-07-20T08:28:19;100061.81;;;38.55;30.34
9335;BME280;4706;41.844;26.082;2023-07-20T08:30:46;100060.47;;;38.77;29.84
9335;BME280;4706;41.844;26.082;2023-07-20T08:33:17;100060.66;;;38.68;29.46
9335;BME280;4706;41.844;26.082;2023-07-20T08:35:46;100057.81;;;38.73;30.26
9335;BME280;4706;41.844;26.082;2023-07-20T08:38:12;100055.72;;;38.74;29.97
9335;BME280;4706;41.844;26.082;2023-07-20T08:40:45;100063.31;;;38.71;29.55
9335;BME280;4706;41.844;26.082;2023-07-20T08:43:11;100060.66;;;38.94;28.48
9335;BME280;4706;41.844;26.082;2023-07-20T08:45:39;100047.63;;;39.04;28.74
9335;BME280;4706;41.844;26.082;2023-07-20T08:48:08;100042.47;;;39.14;29.10
9335;BME280;4706;41.844;26.082;2023-07-20T08:50:34;100045.78;;;39.38;28.83
9335;BME280;4706;41.844;26.082;2023-07-20T08:53:01;100044.03;;;39.46;28.79
9335;BME280;4706;41.844;26.082;2023-07-20T08:55:27;100044.88;;;39.64;27.96
9335;BME280;4706;41.844;26.082;2023-07-20T08:57:54;100042.16;;;39.97;27.72
9335;BME280;4706;41.844;26.082;2023-07-20T09:00:21;100038.88;;;40.21;27.56
9335;BME280;4706;41.844;26.082;2023-07-20T09:02:50;100031.31;;;40.58;26.63
9335;BME280;4706;41.844;26.082;2023-07-20T09:05:20;100030.56;;;40.74;26.57
9335;BME280;4706;41.844;26.082;2023-07-20T09:07:45;100031.59;;;40.76;25.28
9335;BME280;4706;41.844;26.082;2023-07-20T09:10:12;100036.03;;;40.83;26.15
9335;BME280;4706;41.844;26.082;2023-07-20T09:12:40;100031.06;;;40.84;25.14
9335;BME280;4706;41.844;26.082;2023-07-20T09:15:06;100026.63;;;40.60;25.48
9335;BME280;4706;41.844;26.082;2023-07-20T09:17:32;100023.69;;;40.54;25.16
9335;BME280;4706;41.844;26.082;2023-07-20T09:19:58;100011.13;;;40.41;25.60
9335;BME280;4706;41.844;26.082;2023-07-20T09:22:30;100018.75;;;40.66;25.76
9335;BME280;4706;41.844;26.082;2023-07-20T09:24:57;100025.56;;;40.86;24.86
9335;BME280;4706;41.844;26.082;2023-07-20T09:27:34;100026.63;;;41.05;24.59
9335;BME280;4706;41.844;26.082;2023-07-20T09:30:01;100023.22;;;41.01;24.95
9335;BME280;4706;41.844;26.082;2023-07-20T09:32:27;100017.09;;;41.33;24.61
9335;BME280;4706;41.844;26.082;2023-07-20T09:34:52;100023.56;;;41.67;24.85
9335;BME280;4706;41.844;26.082;2023-07-20T09:37:22;100032.44;;;41.86;24.40
9335;BME280;4706;41.844;26.082;2023-07-20T09:39:48;100025.63;;;41.78;24.68
9335;BME280;4706;41.844;26.082;2023-07-20T09:42:16;100017.69;;;41.95;24.00
9335;BME280;4706;41.844;26.082;2023-07-20T09:44:44;100023.56;;;42.19;24.14
9335;BME280;4706;41.844;26.082;2023-07-20T09:47:11;100020.75;;;42.50;23.48
9335;BME280;4706;41.844;26.082;2023-07-20T09:49:40;100020.34;;;42.34;23.81
9335;BME280;4706;41.844;26.082;2023-07-20T09:52:08;100012.25;;;42.27;23.33
9335;BME280;4706;41.844;26.082;2023-07-20T09:54:37;100014.56;;;42.34;23.13
9335;BME280;4706;41.844;26.082;2023-07-20T09:57:03;100008.16;;;42.47;23.81
9335;BME280;4706;41.844;26.082;2023-07-20T09:59:32;100012.75;;;42.67;23.10
9335;BME280;4706;41.844;26.082;2023-07-20T10:01:58;100006.41;;;42.99;22.67
9335;BME280;4706;41.844;26.082;2023-07-20T10:04:26;100007.59;;;43.14;22.21
9335;BME280;4706;41.844;26.082;2023-07-20T10:06:54;100004.66;;;42.90;22.94
9335;BME280;4706;41.844;26.082;2023-07-20T10:09:22;99981.44;;;42.96;22.21
9335;BME280;4706;41.844;26.082;2023-07-20T10:11:50;99989.72;;;43.10;22.17
9335;BME280;4706;41.844;26.082;2023-07-20T10:14:19;99988.59;;;43.19;21.77
9335;BME280;4706;41.844;26.082;2023-07-20T10:16:55;99983.81;;;43.22;21.37
9335;BME280;4706;41.844;26.082;2023-07-20T10:19:31;99980.84;;;43.03;22.05
9335;BME280;4706;41.844;26.082;2023-07-20T10:22:17;99953.72;;;42.51;21.50
9335;BME280;4706;41.844;26.082;2023-07-20T10:24:46;99970.16;;;42.67;22.16
9335;BME280;4706;41.844;26.082;2023-07-20T10:27:13;99959.84;;;42.72;21.86
9335;BME280;4706;41.844;26.082;2023-07-20T10:29:40;99964.84;;;42.72;21.93
9335;BME280;4706;41.844;26.082;2023-07-20T10:32:08;99954.56;;;42.76;22.28
9335;BME280;4706;41.844;26.082;2023-07-20T10:34:34;99946.38;;;43.05;22.15
9335;BME280;4706;41.844;26.082;2023-07-20T10:37:00;99937.03;;;43.17;21.66
9335;BME280;4706;41.844;26.082;2023-07-20T10:39:35;99930.94;;;43.21;22.60
9335;BME280;4706;41.844;26.082;2023-07-20T10:42:08;99935.03;;;43.31;21.89
9335;BME280;4706;41.844;26.082;2023-07-20T10:44:36;99933.63;;;43.38;21.65
9335;BME280;4706;41.844;26.082;2023-07-20T10:47:06;99932.97;;;43.07;21.81
9335;BME280;4706;41.844;26.082;2023-07-20T10:49:34;99927.94;;;43.08;21.81
9335;BME280;4706;41.844;26.082;2023-07-20T10:52:04;99928.44;;;43.12;22.11
9335;BME280;4706;41.844;26.082;2023-07-20T10:56:57;99917.81;;;42.71;21.92
9335;BME280;4706;41.844;26.082;2023-07-20T11:01:49;99907.88;;;42.36;22.58
9335;BME280;4706;41.844;26.082;2023-07-20T11:04:15;99905.28;;;42.57;22.41
9335;BME280;4706;41.844;26.082;2023-07-20T11:06:44;99905.84;;;42.56;22.55
9335;BME280;4706;41.844;26.082;2023-07-20T11:09:13;99900.28;;;42.58;22.48
9335;BME280;4706;41.844;26.082;2023-07-20T11:11:44;99899.47;;;42.63;22.74
9335;BME280;4706;41.844;26.082;2023-07-20T11:14:20;99898.69;;;42.62;22.62
9335;BME280;4706;41.844;26.082;2023-07-20T11:16:47;99880.63;;;42.81;22.44
9335;BME280;4706;41.844;26.082;2023-07-20T11:19:19;99886.09;;;42.60;22.27
9335;BME280;4706;41.844;26.082;2023-07-20T11:21:47;99871.84;;;42.37;22.78
9335;BME280;4706;41.844;26.082;2023-07-20T11:24:15;99876.81;;;42.07;23.49
9335;BME280;4706;41.844;26.082;2023-07-20T11:26:54;99870.94;;;42.18;23.23
9335;BME280;4706;41.844;26.082;2023-07-20T11:29:21;99869.66;;;42.74;23.01
9335;BME280;4706;41.844;26.082;2023-07-20T11:31:48;99863.63;;;42.96;22.24
9335;BME280;4706;41.844;26.082;2023-07-20T11:34:19;99862.03;;;42.95;22.73
9335;BME280;4706;41.844;26.082;2023-07-20T11:36:47;99852.53;;;43.00;21.95
9335;BME280;4706;41.844;26.082;2023-07-20T11:39:14;99836.19;;;42.54;22.52
9335;BME280;4706;41.844;26.082;2023-07-20T11:41:51;99838.34;;;42.78;22.95
9335;BME280;4706;41.844;26.082;2023-07-20T11:44:17;99830.56;;;43.10;22.72
9335;BME280;4706;41.844;26.082;2023-07-20T11:46:44;99829.13;;;42.98;22.44
9335;BME280;4706;41.844;26.082;2023-07-20T11:49:10;99823.50;;;42.62;22.91
9335;BME280;4706;41.844;26.082;2023-07-20T11:51:37;99820.19;;;41.98;23.45
9335;BME280;4706;41.844;26.082;2023-07-20T11:54:05;99815.47;;;41.95;23.66
9335;BME280;4706;41.844;26.082;2023-07-20T11:56:31;99806.34;;;41.85;23.57
9335;BME280;4706;41.844;26.082;2023-07-20T11:58:58;99810.81;;;41.45;23.37
9335;BME280;4706;41.844;26.082;2023-07-20T12:01:30;99802.53;;;41.24;24.52
9335;BME280;4706;41.844;26.082;2023-07-20T12:04:03;99794.06;;;41.43;24.40
9335;BME280;4706;41.844;26.082;2023-07-20T12:06:29;99789.88;;;41.33;24.62
9335;BME280;4706;41.844;26.082;2023-07-20T12:08:59;99778.97;;;41.15;24.71
9335;BME280;4706;41.844;26.082;2023-07-20T12:11:36;99778.34;;;41.33;24.00
9335;BME280;4706;41.844;26.082;2023-07-20T12:14:02;99790.38;;;41.43;24.26
9335;BME280;4706;41.844;26.082;2023-07-20T12:16:29;99779.88;;;40.87;24.83
9335;BME280;4706;41.844;26.082;2023-07-20T12:19:07;99774.66;;;40.86;24.99
9335;BME280;4706;41.844;26.082;2023-07-20T12:21:37;99770.09;;;41.07;24.58
9335;BME280;4706;41.844;26.082;2023-07-20T12:24:04;99769.88;;;40.99;24.37
9335;BME280;4706;41.844;26.082;2023-07-20T12:26:30;99762.81;;;41.00;24.21
9335;BME280;4706;41.844;26.082;2023-07-20T12:28:56;99763.28;;;41.10;24.82
9335;BME280;4706;41.844;26.082;2023-07-20T12:31:22;99769.63;;;40.97;24.76
9335;BME280;4706;41.844;26.082;2023-07-20T12:33:50;99756.03;;;40.87;24.82
9335;BME280;4706;41.844;26.082;2023-07-20T12:36:16;99758.06;;;41.03;24.57
9335;BME280;4706;41.844;26.082;2023-07-20T12:38:41;99775.25;;;41.25;24.66
9335;BME280;4706;41.844;26.082;2023-07-20T12:41:07;99770.78;;;41.30;24.05
9335;BME280;4706;41.844;26.082;2023-07-20T12:43:33;99759.44;;;41.38;25.03
9335;BME280;4706;41.844;26.082;2023-07-20T12:45:58;99774.59;;;41.49;23.92
9335;BME280;4706;41.844;26.082;2023-07-20T12:48:24;99773.28;;;41.51;23.80
9335;BME280;4706;41.844;26.082;2023-07-20T12:50:50;99774.22;;;41.23;23.65
9335;BME280;4706;41.844;26.082;2023-07-20T12:53:16;99759.81;;;41.17;23.85
9335;BME280;4706;41.844;26.082;2023-07-20T12:55:41;99769.81;;;41.16;24.03
9335;BME280;4706;41.844;26.082;2023-07-20T12:58:08;99756.94;;;41.17;24.52
9335;BME280;4706;41.844;26.082;2023-07-20T13:00:34;99772.66;;;41.22;24.10
9335;BME280;4706;41.844;26.082;2023-07-20T13:02:59;99772.84;;;41.35;23.42
9335;BME280;4706;41.844;26.082;2023-07-20T13:05:25;99762.06;;;41.36;23.48
9335;BME280;4706;41.844;26.082;2023-07-20T13:07:51;99770.38;;;41.04;24.03
9335;BME280;4706;41.844;26.082;2023-07-20T13:10:17;99766.47;;;40.95;24.96
9335;BME280;4706;41.844;26.082;2023-07-20T13:12:43;99773.28;;;41.04;24.56